Back to Top

Language: 

My Weather Underground Personal Weather Station Historical Data with Graphs...

Delerius Weather Station Historical Data
Daily Summary for March 4, 2017 Units:  Both    English   Metric
« Previous Day
Next Day »
Daily Weekly Monthly Yearly Custom
  High: Low: Average:
Temperature: 53.3 °F /  11.8 °C 42.7 °F /  5.9 °C 46.5 °F /  8.1 °C
Dew Point: 45.2 °F /  7.3 °C 36.6 °F /  2.6 °C 41.9 °F /  5.5 °C
Humidity: 98 % 54 % 85 %
Wind Speed: 11.0 mph /  17.7 km/h - 4.8 mph /  7.7 km/h
Wind Gust: 16.0 mph /  25.7 km/h - -
Wind:- - South
Pressure: 29.19 in /  988.4 hPa 29.07 in /  984.3 hPa -
Precipitation: 0.00 in /  0 mm    
Historical Graphs
 
 
Tabular Data for March 4, 2017
Time Temperature Dew Point Pressure Wind Wind Speed Wind Gust Humidity Rainfall Rate (Hourly) solar Conditions
00:05 45.3 °F /  7.4 °C 44.8 °F /  7.1 °C 29.19 in /  988.4 hPa SE 2.0 mph /  3.2 km/h 2.0 mph /  3.2 km/h 98 % 0.00 in /  0 mm 0 W/m2
00:15 45.5 °F /  7.5 °C 45.0 °F /  7.2 °C 29.18 in /  988 hPa SE 2.0 mph /  3.2 km/h 3.0 mph /  4.8 km/h 98 % 0.00 in /  0 mm 0 W/m2
00:20 45.5 °F /  7.5 °C 45.0 °F /  7.2 °C 29.18 in /  988 hPa SE 2.0 mph /  3.2 km/h 2.0 mph /  3.2 km/h 98 % 0.00 in /  0 mm 0 W/m2
00:25 45.5 °F /  7.5 °C 45.0 °F /  7.2 °C 29.17 in /  987.7 hPa SE 1.0 mph /  1.6 km/h 2.0 mph /  3.2 km/h 98 % 0.00 in /  0 mm 0 W/m2
00:30 45.5 °F /  7.5 °C 45.0 °F /  7.2 °C 29.17 in /  987.7 hPa SE 2.0 mph /  3.2 km/h 2.0 mph /  3.2 km/h 98 % 0.00 in /  0 mm 0 W/m2
00:35 45.5 °F /  7.5 °C 45.0 °F /  7.2 °C 29.17 in /  987.7 hPa SE 2.0 mph /  3.2 km/h 2.0 mph /  3.2 km/h 98 % 0.00 in /  0 mm 0 W/m2
00:45 45.5 °F /  7.5 °C 45.0 °F /  7.2 °C 29.17 in /  987.7 hPa SE 3.0 mph /  4.8 km/h 4.0 mph /  6.4 km/h 98 % 0.00 in /  0 mm 0 W/m2
00:50 45.5 °F /  7.5 °C 45.0 °F /  7.2 °C 29.17 in /  987.7 hPa SE 3.0 mph /  4.8 km/h 4.0 mph /  6.4 km/h 98 % 0.00 in /  0 mm 0 W/m2
01:00 45.5 °F /  7.5 °C 45.0 °F /  7.2 °C 29.16 in /  987.4 hPa ESE 5.0 mph /  8 km/h 5.0 mph /  8 km/h 98 % 0.00 in /  0 mm 0 W/m2
01:05 45.4 °F /  7.4 °C 44.9 °F /  7.2 °C 29.16 in /  987.4 hPa East 4.0 mph /  6.4 km/h 5.0 mph /  8 km/h 98 % 0.00 in /  0 mm 0 W/m2
01:10 45.4 °F /  7.4 °C 44.9 °F /  7.2 °C 29.16 in /  987.4 hPa East 4.0 mph /  6.4 km/h 6.0 mph /  9.7 km/h 98 % 0.00 in /  0 mm 0 W/m2
01:15 45.4 °F /  7.4 °C 44.9 °F /  7.2 °C 29.17 in /  987.7 hPa East 3.0 mph /  4.8 km/h 6.0 mph /  9.7 km/h 98 % 0.00 in /  0 mm 0 W/m2
01:25 45.4 °F /  7.4 °C 44.9 °F /  7.2 °C 29.17 in /  987.7 hPa East 2.0 mph /  3.2 km/h 5.0 mph /  8 km/h 98 % 0.00 in /  0 mm 0 W/m2
01:30 45.4 °F /  7.4 °C 44.9 °F /  7.2 °C 29.17 in /  987.7 hPa Calm   5.0 mph /  8 km/h 98 % 0.00 in /  0 mm 0 W/m2
01:35 45.4 °F /  7.4 °C 44.9 °F /  7.2 °C 29.17 in /  987.7 hPa Calm   5.0 mph /  8 km/h 98 % 0.00 in /  0 mm 0 W/m2
01:40 45.4 °F /  7.4 °C 44.9 °F /  7.2 °C 29.16 in /  987.4 hPa Calm   5.0 mph /  8 km/h 98 % 0.00 in /  0 mm 0 W/m2
01:45 45.4 °F /  7.4 °C 44.9 °F /  7.2 °C 29.16 in /  987.4 hPa Calm   5.0 mph /  8 km/h 98 % 0.00 in /  0 mm 0 W/m2
01:50 45.4 °F /  7.4 °C 44.9 °F /  7.2 °C 29.16 in /  987.4 hPa Calm   5.0 mph /  8 km/h 98 % 0.00 in /  0 mm 0 W/m2
02:00 45.3 °F /  7.4 °C 44.8 °F /  7.1 °C 29.15 in /  987 hPa Calm   5.0 mph /  8 km/h 98 % 0.00 in /  0 mm 0 W/m2
02:05 45.3 °F /  7.4 °C 44.8 °F /  7.1 °C 29.15 in /  987 hPa East 1.0 mph /  1.6 km/h 5.0 mph /  8 km/h 98 % 0.00 in /  0 mm 0 W/m2
02:15 45.2 °F /  7.3 °C 44.7 °F /  7.1 °C 29.15 in /  987 hPa East 1.0 mph /  1.6 km/h 5.0 mph /  8 km/h 98 % 0.00 in /  0 mm 0 W/m2
02:20 45.2 °F /  7.3 °C 44.7 °F /  7.1 °C 29.15 in /  987 hPa East 1.0 mph /  1.6 km/h 1.0 mph /  1.6 km/h 98 % 0.00 in /  0 mm 0 W/m2
02:25 45.2 °F /  7.3 °C 44.7 °F /  7.1 °C 29.15 in /  987 hPa East 2.0 mph /  3.2 km/h 2.0 mph /  3.2 km/h 98 % 0.00 in /  0 mm 0 W/m2
02:35 45.2 °F /  7.3 °C 44.7 °F /  7.1 °C 29.15 in /  987 hPa East 4.0 mph /  6.4 km/h 5.0 mph /  8 km/h 98 % 0.00 in /  0 mm 0 W/m2
02:40 45.2 °F /  7.3 °C 44.7 °F /  7.1 °C 29.15 in /  987 hPa East 3.0 mph /  4.8 km/h 6.0 mph /  9.7 km/h 98 % 0.00 in /  0 mm 0 W/m2
02:45 45.2 °F /  7.3 °C 44.7 °F /  7.1 °C 29.15 in /  987 hPa SE 4.0 mph /  6.4 km/h 6.0 mph /  9.7 km/h 98 % 0.00 in /  0 mm 0 W/m2
02:50 45.2 °F /  7.3 °C 44.7 °F /  7.1 °C 29.14 in /  986.7 hPa ESE 5.0 mph /  8 km/h 5.0 mph /  8 km/h 98 % 0.00 in /  0 mm 0 W/m2
02:55 45.2 °F /  7.3 °C 44.7 °F /  7.1 °C 29.14 in /  986.7 hPa ESE 3.0 mph /  4.8 km/h 5.0 mph /  8 km/h 98 % 0.00 in /  0 mm 0 W/m2
03:05 45.1 °F /  7.3 °C 44.6 °F /  7 °C 29.14 in /  986.7 hPa ESE 2.0 mph /  3.2 km/h 5.0 mph /  8 km/h 98 % 0.00 in /  0 mm 0 W/m2
03:15 45.1 °F /  7.3 °C 44.6 °F /  7 °C 29.14 in /  986.7 hPa ESE 2.0 mph /  3.2 km/h 5.0 mph /  8 km/h 98 % 0.00 in /  0 mm 0 W/m2
03:20 45.1 °F /  7.3 °C 44.6 °F /  7 °C 29.14 in /  986.7 hPa ESE 1.0 mph /  1.6 km/h 5.0 mph /  8 km/h 98 % 0.00 in /  0 mm 0 W/m2
03:25 45.0 °F /  7.2 °C 44.5 °F /  6.9 °C 29.13 in /  986.3 hPa ESE 1.0 mph /  1.6 km/h 5.0 mph /  8 km/h 98 % 0.00 in /  0 mm 0 W/m2
03:30 45.0 °F /  7.2 °C 44.5 °F /  6.9 °C 29.13 in /  986.3 hPa ESE 1.0 mph /  1.6 km/h 5.0 mph /  8 km/h 98 % 0.00 in /  0 mm 0 W/m2
03:40 45.0 °F /  7.2 °C 44.5 °F /  6.9 °C 29.13 in /  986.3 hPa ESE 1.0 mph /  1.6 km/h 5.0 mph /  8 km/h 98 % 0.00 in /  0 mm 0 W/m2
03:45 44.9 °F /  7.2 °C 44.4 °F /  6.9 °C 29.13 in /  986.3 hPa ESE 1.0 mph /  1.6 km/h 5.0 mph /  8 km/h 98 % 0.00 in /  0 mm 0 W/m2
03:50 44.9 °F /  7.2 °C 44.4 °F /  6.9 °C 29.13 in /  986.3 hPa ESE 1.0 mph /  1.6 km/h 5.0 mph /  8 km/h 98 % 0.00 in /  0 mm 0 W/m2
03:55 44.8 °F /  7.1 °C 44.3 °F /  6.8 °C 29.13 in /  986.3 hPa ESE 1.0 mph /  1.6 km/h 5.0 mph /  8 km/h 98 % 0.00 in /  0 mm 0 W/m2
04:00 44.7 °F /  7.1 °C 44.2 °F /  6.8 °C 29.13 in /  986.3 hPa ESE 1.0 mph /  1.6 km/h 5.0 mph /  8 km/h 98 % 0.00 in /  0 mm 0 W/m2
04:05 44.7 °F /  7.1 °C 44.2 °F /  6.8 °C 29.13 in /  986.3 hPa SE 1.0 mph /  1.6 km/h 5.0 mph /  8 km/h 98 % 0.00 in /  0 mm 0 W/m2
04:15 44.7 °F /  7.1 °C 44.2 °F /  6.8 °C 29.14 in /  986.7 hPa SE 3.0 mph /  4.8 km/h 5.0 mph /  8 km/h 98 % 0.00 in /  0 mm 0 W/m2
04:25 44.8 °F /  7.1 °C 44.3 °F /  6.8 °C 29.14 in /  986.7 hPa SE 4.0 mph /  6.4 km/h 5.0 mph /  8 km/h 98 % 0.00 in /  0 mm 0 W/m2
04:30 44.8 °F /  7.1 °C 44.3 °F /  6.8 °C 29.14 in /  986.7 hPa SE 4.0 mph /  6.4 km/h 5.0 mph /  8 km/h 98 % 0.00 in /  0 mm 0 W/m2
04:35 44.8 °F /  7.1 °C 44.3 °F /  6.8 °C 29.14 in /  986.7 hPa SE 5.0 mph /  8 km/h 5.0 mph /  8 km/h 98 % 0.00 in /  0 mm 0 W/m2
04:40 44.8 °F /  7.1 °C 44.3 °F /  6.8 °C 29.14 in /  986.7 hPa SE 5.0 mph /  8 km/h 6.0 mph /  9.7 km/h 98 % 0.00 in /  0 mm 0 W/m2
04:50 44.9 °F /  7.2 °C 44.4 °F /  6.9 °C 29.14 in /  986.7 hPa SE 5.0 mph /  8 km/h 5.0 mph /  8 km/h 98 % 0.00 in /  0 mm 0 W/m2
04:55 44.9 °F /  7.2 °C 44.4 °F /  6.9 °C 29.14 in /  986.7 hPa SE 4.0 mph /  6.4 km/h 5.0 mph /  8 km/h 98 % 0.00 in /  0 mm 0 W/m2
05:00 44.9 °F /  7.2 °C 44.4 °F /  6.9 °C 29.14 in /  986.7 hPa SE 3.0 mph /  4.8 km/h 5.0 mph /  8 km/h 98 % 0.00 in /  0 mm 0 W/m2
05:05 44.9 °F /  7.2 °C 44.4 °F /  6.9 °C 29.14 in /  986.7 hPa SE 4.0 mph /  6.4 km/h 5.0 mph /  8 km/h 98 % 0.00 in /  0 mm 0 W/m2
05:10 44.9 °F /  7.2 °C 44.4 °F /  6.9 °C 29.14 in /  986.7 hPa SSE 3.0 mph /  4.8 km/h 3.0 mph /  4.8 km/h 98 % 0.00 in /  0 mm 0 W/m2
05:20 44.9 °F /  7.2 °C 44.4 °F /  6.9 °C 29.14 in /  986.7 hPa SSE 2.0 mph /  3.2 km/h 5.0 mph /  8 km/h 98 % 0.00 in /  0 mm 0 W/m2
05:25 44.9 °F /  7.2 °C 44.4 °F /  6.9 °C 29.14 in /  986.7 hPa SSE 2.0 mph /  3.2 km/h 5.0 mph /  8 km/h 98 % 0.00 in /  0 mm 0 W/m2
05:30 44.8 °F /  7.1 °C 44.3 °F /  6.8 °C 29.14 in /  986.7 hPa SSE 1.0 mph /  1.6 km/h 1.0 mph /  1.6 km/h 98 % 0.00 in /  0 mm 0 W/m2
05:35 44.8 °F /  7.1 °C 44.3 °F /  6.8 °C 29.13 in /  986.3 hPa Calm   5.0 mph /  8 km/h 98 % 0.00 in /  0 mm 0 W/m2
05:45 44.7 °F /  7.1 °C 44.2 °F /  6.8 °C 29.13 in /  986.3 hPa Calm   5.0 mph /  8 km/h 98 % 0.00 in /  0 mm 0 W/m2
05:50 44.7 °F /  7.1 °C 44.2 °F /  6.8 °C 29.13 in /  986.3 hPa Calm   5.0 mph /  8 km/h 98 % 0.00 in /  0 mm 0 W/m2
06:00 44.5 °F /  6.9 °C 44.0 °F /  6.7 °C 29.13 in /  986.3 hPa Calm   5.0 mph /  8 km/h 98 % 0.00 in /  0 mm 0 W/m2
06:05 44.4 °F /  6.9 °C 43.9 °F /  6.6 °C 29.14 in /  986.7 hPa Calm   5.0 mph /  8 km/h 98 % 0.00 in /  0 mm 0 W/m2
06:10 44.4 °F /  6.9 °C 43.9 °F /  6.6 °C 29.14 in /  986.7 hPa Calm   5.0 mph /  8 km/h 98 % 0.00 in /  0 mm 0 W/m2
06:15 44.4 °F /  6.9 °C 43.9 °F /  6.6 °C 29.14 in /  986.7 hPa Calm   5.0 mph /  8 km/h 98 % 0.00 in /  0 mm 0 W/m2
06:20 44.4 °F /  6.9 °C 43.9 °F /  6.6 °C 29.14 in /  986.7 hPa SSE 1.0 mph /  1.6 km/h 5.0 mph /  8 km/h 98 % 0.00 in /  0 mm 0 W/m2
06:30 44.4 °F /  6.9 °C 43.9 °F /  6.6 °C 29.14 in /  986.7 hPa SSE 2.0 mph /  3.2 km/h 2.0 mph /  3.2 km/h 98 % 0.00 in /  0 mm 0 W/m2
06:35 44.4 °F /  6.9 °C 43.9 °F /  6.6 °C 29.14 in /  986.7 hPa SSE 1.0 mph /  1.6 km/h 5.0 mph /  8 km/h 98 % 0.00 in /  0 mm 0 W/m2
06:40 44.3 °F /  6.8 °C 43.8 °F /  6.6 °C 29.13 in /  986.3 hPa Calm   5.0 mph /  8 km/h 98 % 0.00 in /  0 mm 0 W/m2
06:45 44.2 °F /  6.8 °C 43.7 °F /  6.5 °C 29.13 in /  986.3 hPa Calm   5.0 mph /  8 km/h 98 % 0.00 in /  0 mm 0 W/m2
06:50 44.1 °F /  6.7 °C 43.6 °F /  6.4 °C 29.13 in /  986.3 hPa Calm   5.0 mph /  8 km/h 98 % 0.00 in /  0 mm 0 W/m2
07:00 43.8 °F /  6.6 °C 43.3 °F /  6.3 °C 29.13 in /  986.3 hPa Calm   5.0 mph /  8 km/h 98 % 0.00 in /  0 mm 5 W/m2
07:05 43.7 °F /  6.5 °C 43.2 °F /  6.2 °C 29.13 in /  986.3 hPa SSE 1.0 mph /  1.6 km/h 5.0 mph /  8 km/h 98 % 0.00 in /  0 mm 9 W/m2
07:15 43.6 °F /  6.4 °C 43.1 °F /  6.2 °C 29.13 in /  986.3 hPa West 3.0 mph /  4.8 km/h 5.0 mph /  8 km/h 98 % 0.00 in /  0 mm 14 W/m2
07:20 43.4 °F /  6.3 °C 42.9 °F /  6.1 °C 29.13 in /  986.3 hPa West 3.0 mph /  4.8 km/h 3.0 mph /  4.8 km/h 98 % 0.00 in /  0 mm 18 W/m2
07:25 43.3 °F /  6.3 °C 42.8 °F /  6 °C 29.13 in /  986.3 hPa West 1.0 mph /  1.6 km/h 5.0 mph /  8 km/h 98 % 0.00 in /  0 mm 19 W/m2
07:35 43.0 °F /  6.1 °C 42.2 °F /  5.7 °C 29.13 in /  986.3 hPa Calm   5.0 mph /  8 km/h 97 % 0.00 in /  0 mm 25 W/m2
07:40 42.9 °F /  6.1 °C 42.4 °F /  5.8 °C 29.13 in /  986.3 hPa Calm   5.0 mph /  8 km/h 98 % 0.00 in /  0 mm 30 W/m2
07:45 42.9 °F /  6.1 °C 42.4 °F /  5.8 °C 29.13 in /  986.3 hPa Calm   5.0 mph /  8 km/h 98 % 0.00 in /  0 mm 37 W/m2
07:50 43.0 °F /  6.1 °C 42.5 °F /  5.8 °C 29.13 in /  986.3 hPa Calm   5.0 mph /  8 km/h 98 % 0.00 in /  0 mm 46 W/m2
07:55 43.0 °F /  6.1 °C 42.5 °F /  5.8 °C 29.13 in /  986.3 hPa Calm   5.0 mph /  8 km/h 98 % 0.00 in /  0 mm 51 W/m2
08:00 43.1 °F /  6.2 °C 42.6 °F /  5.9 °C 29.13 in /  986.3 hPa Calm   5.0 mph /  8 km/h 98 % 0.00 in /  0 mm 51 W/m2
08:10 43.1 °F /  6.2 °C 42.6 °F /  5.9 °C 29.13 in /  986.3 hPa Calm   5.0 mph /  8 km/h 98 % 0.00 in /  0 mm 63 W/m2
08:20 43.3 °F /  6.3 °C 42.8 °F /  6 °C 29.13 in /  986.3 hPa Calm   5.0 mph /  8 km/h 98 % 0.00 in /  0 mm 70 W/m2
08:25 43.4 °F /  6.3 °C 42.9 °F /  6.1 °C 29.13 in /  986.3 hPa Calm   5.0 mph /  8 km/h 98 % 0.00 in /  0 mm 74 W/m2
08:30 43.5 °F /  6.4 °C 43.0 °F /  6.1 °C 29.13 in /  986.3 hPa Calm   5.0 mph /  8 km/h 98 % 0.00 in /  0 mm 77 W/m2
08:35 43.5 °F /  6.4 °C 43.0 °F /  6.1 °C 29.13 in /  986.3 hPa Calm   5.0 mph /  8 km/h 98 % 0.00 in /  0 mm 77 W/m2
08:45 43.7 °F /  6.5 °C 43.2 °F /  6.2 °C 29.13 in /  986.3 hPa Calm   5.0 mph /  8 km/h 98 % 0.00 in /  0 mm 84 W/m2
08:50 43.8 °F /  6.6 °C 43.3 °F /  6.3 °C 29.13 in /  986.3 hPa Calm   5.0 mph /  8 km/h 98 % 0.00 in /  0 mm 84 W/m2
08:55 43.9 °F /  6.6 °C 43.4 °F /  6.3 °C 29.13 in /  986.3 hPa Calm   5.0 mph /  8 km/h 98 % 0.00 in /  0 mm 91 W/m2
09:00 43.9 °F /  6.6 °C 43.4 °F /  6.3 °C 29.13 in /  986.3 hPa Calm   5.0 mph /  8 km/h 98 % 0.00 in /  0 mm 93 W/m2
09:05 43.9 °F /  6.6 °C 43.4 °F /  6.3 °C 29.13 in /  986.3 hPa West 1.0 mph /  1.6 km/h 5.0 mph /  8 km/h 98 % 0.00 in /  0 mm 97 W/m2
09:15 44.1 °F /  6.7 °C 43.6 °F /  6.4 °C 29.13 in /  986.3 hPa Calm   5.0 mph /  8 km/h 98 % 0.00 in /  0 mm 100 W/m2
09:20 44.1 °F /  6.7 °C 43.6 °F /  6.4 °C 29.13 in /  986.3 hPa West 1.0 mph /  1.6 km/h 5.0 mph /  8 km/h 98 % 0.00 in /  0 mm 111 W/m2
09:30 44.3 °F /  6.8 °C 43.8 °F /  6.6 °C 29.13 in /  986.3 hPa SSE 2.0 mph /  3.2 km/h 2.0 mph /  3.2 km/h 98 % 0.00 in /  0 mm 120 W/m2
09:35 44.4 °F /  6.9 °C 43.9 °F /  6.6 °C 29.13 in /  986.3 hPa South 2.0 mph /  3.2 km/h 5.0 mph /  8 km/h 98 % 0.00 in /  0 mm 123 W/m2
09:40 44.4 °F /  6.9 °C 43.9 °F /  6.6 °C 29.13 in /  986.3 hPa South 2.0 mph /  3.2 km/h 5.0 mph /  8 km/h 98 % 0.00 in /  0 mm 142 W/m2
09:50 44.4 °F /  6.9 °C 43.6 °F /  6.4 °C 29.13 in /  986.3 hPa South 4.0 mph /  6.4 km/h 4.0 mph /  6.4 km/h 97 % 0.00 in /  0 mm 160 W/m2
09:55 44.6 °F /  7 °C 44.1 °F /  6.7 °C 29.12 in /  986 hPa South 3.0 mph /  4.8 km/h 5.0 mph /  8 km/h 98 % 0.00 in /  0 mm 156 W/m2
10:00 44.8 °F /  7.1 °C 44.0 °F /  6.7 °C 29.12 in /  986 hPa South 2.0 mph /  3.2 km/h 5.0 mph /  8 km/h 97 % 0.00 in /  0 mm 158 W/m2
10:05 44.8 °F /  7.1 °C 44.0 °F /  6.7 °C 29.12 in /  986 hPa South 2.0 mph /  3.2 km/h 5.0 mph /  8 km/h 97 % 0.00 in /  0 mm 155 W/m2
10:10 45.0 °F /  7.2 °C 44.2 °F /  6.8 °C 29.12 in /  986 hPa South 1.0 mph /  1.6 km/h 1.0 mph /  1.6 km/h 97 % 0.00 in /  0 mm 162 W/m2
10:15 45.1 °F /  7.3 °C 44.3 °F /  6.8 °C 29.12 in /  986 hPa Calm   5.0 mph /  8 km/h 97 % 0.00 in /  0 mm 181 W/m2
10:25 45.4 °F /  7.4 °C 44.6 °F /  7 °C 29.12 in /  986 hPa Calm   5.0 mph /  8 km/h 97 % 0.00 in /  0 mm 299 W/m2
10:30 45.6 °F /  7.6 °C 44.5 °F /  6.9 °C 29.12 in /  986 hPa South 1.0 mph /  1.6 km/h 5.0 mph /  8 km/h 96 % 0.00 in /  0 mm 359 W/m2
10:35 45.9 °F /  7.7 °C 44.8 °F /  7.1 °C 29.12 in /  986 hPa SW 4.0 mph /  6.4 km/h 5.0 mph /  8 km/h 96 % 0.00 in /  0 mm 482 W/m2
10:40 46.3 °F /  7.9 °C 44.9 °F /  7.2 °C 29.12 in /  986 hPa SSW 6.0 mph /  9.7 km/h 6.0 mph /  9.7 km/h 95 % 0.00 in /  0 mm 373 W/m2
10:45 46.8 °F /  8.2 °C 45.2 °F /  7.3 °C 29.12 in /  986 hPa South 5.0 mph /  8 km/h 6.0 mph /  9.7 km/h 94 % 0.00 in /  0 mm 508 W/m2
10:55 47.2 °F /  8.4 °C 44.7 °F /  7.1 °C 29.12 in /  986 hPa SW 4.0 mph /  6.4 km/h 8.0 mph /  12.9 km/h 91 % 0.00 in /  0 mm 540 W/m2
11:05 47.9 °F /  8.8 °C 44.5 °F /  6.9 °C 29.12 in /  986 hPa WSW 5.0 mph /  8 km/h 7.0 mph /  11.3 km/h 88 % 0.00 in /  0 mm 592 W/m2
11:10 48.4 °F /  9.1 °C 45.0 °F /  7.2 °C 29.12 in /  986 hPa West 5.0 mph /  8 km/h 5.0 mph /  8 km/h 88 % 0.00 in /  0 mm 563 W/m2
11:15 48.7 °F /  9.3 °C 44.1 °F /  6.7 °C 29.12 in /  986 hPa South 6.0 mph /  9.7 km/h 6.0 mph /  9.7 km/h 84 % 0.00 in /  0 mm 410 W/m2
11:20 48.8 °F /  9.3 °C 44.5 °F /  6.9 °C 29.11 in /  985.7 hPa South 4.0 mph /  6.4 km/h 5.0 mph /  8 km/h 85 % 0.00 in /  0 mm 353 W/m2
11:30 48.9 °F /  9.4 °C 43.6 °F /  6.4 °C 29.11 in /  985.7 hPa SE 5.0 mph /  8 km/h 5.0 mph /  8 km/h 82 % 0.00 in /  0 mm 341 W/m2
11:35 49.1 °F /  9.5 °C 43.5 °F /  6.4 °C 29.11 in /  985.7 hPa SSW 5.0 mph /  8 km/h 5.0 mph /  8 km/h 81 % 0.00 in /  0 mm 397 W/m2
11:40 49.3 °F /  9.6 °C 43.1 °F /  6.2 °C 29.11 in /  985.7 hPa South 6.0 mph /  9.7 km/h 6.0 mph /  9.7 km/h 79 % 0.00 in /  0 mm 322 W/m2
11:45 49.4 °F /  9.7 °C 42.8 °F /  6 °C 29.11 in /  985.7 hPa SSW 7.0 mph /  11.3 km/h 10.0 mph /  16.1 km/h 78 % 0.00 in /  0 mm 316 W/m2
11:50 49.4 °F /  9.7 °C 43.2 °F /  6.2 °C 29.11 in /  985.7 hPa South 6.0 mph /  9.7 km/h 6.0 mph /  9.7 km/h 79 % 0.00 in /  0 mm 336 W/m2
11:55 49.5 °F /  9.7 °C 43.3 °F /  6.3 °C 29.11 in /  985.7 hPa SSW 5.0 mph /  8 km/h 6.0 mph /  9.7 km/h 79 % 0.00 in /  0 mm 309 W/m2
12:05 50.0 °F /  10 °C 43.4 °F /  6.3 °C 29.11 in /  985.7 hPa SSW 4.0 mph /  6.4 km/h 7.0 mph /  11.3 km/h 78 % 0.00 in /  0 mm 327 W/m2
12:10 50.1 °F /  10.1 °C 42.5 °F /  5.8 °C 29.11 in /  985.7 hPa South 6.0 mph /  9.7 km/h 7.0 mph /  11.3 km/h 75 % 0.00 in /  0 mm 701 W/m2
12:15 50.6 °F /  10.3 °C 43.0 °F /  6.1 °C 29.10 in /  985.3 hPa SW 7.0 mph /  11.3 km/h 8.0 mph /  12.9 km/h 75 % 0.00 in /  0 mm 253 W/m2
12:25 51.4 °F /  10.8 °C 43.4 °F /  6.3 °C 29.11 in /  985.7 hPa South 7.0 mph /  11.3 km/h 10.0 mph /  16.1 km/h 74 % 0.00 in /  0 mm 652 W/m2
12:30 51.5 °F /  10.8 °C 42.4 °F /  5.8 °C 29.11 in /  985.7 hPa South 7.0 mph /  11.3 km/h 7.0 mph /  11.3 km/h 71 % 0.00 in /  0 mm 394 W/m2
12:40 51.0 °F /  10.6 °C 41.9 °F /  5.5 °C 29.10 in /  985.3 hPa SW 8.0 mph /  12.9 km/h 8.0 mph /  12.9 km/h 71 % 0.00 in /  0 mm 533 W/m2
12:45 51.1 °F /  10.6 °C 42.0 °F /  5.6 °C 29.10 in /  985.3 hPa SSW 6.0 mph /  9.7 km/h 9.0 mph /  14.5 km/h 71 % 0.00 in /  0 mm 594 W/m2
12:50 51.3 °F /  10.7 °C 41.8 °F /  5.4 °C 29.10 in /  985.3 hPa SSW 7.0 mph /  11.3 km/h 7.0 mph /  11.3 km/h 70 % 0.00 in /  0 mm 608 W/m2
12:55 51.6 °F /  10.9 °C 41.8 °F /  5.4 °C 29.10 in /  985.3 hPa South 8.0 mph /  12.9 km/h 9.0 mph /  14.5 km/h 69 % 0.00 in /  0 mm 629 W/m2
13:00 51.9 °F /  11.1 °C 41.3 °F /  5.2 °C 29.10 in /  985.3 hPa SSE 8.0 mph /  12.9 km/h 9.0 mph /  14.5 km/h 67 % 0.00 in /  0 mm 570 W/m2
13:10 51.9 °F /  11.1 °C 40.9 °F /  4.9 °C 29.10 in /  985.3 hPa SSE 7.0 mph /  11.3 km/h 9.0 mph /  14.5 km/h 66 % 0.00 in /  0 mm 436 W/m2
13:15 52.0 °F /  11.1 °C 39.4 °F /  4.1 °C 29.10 in /  985.3 hPa South 7.0 mph /  11.3 km/h 11.0 mph /  17.7 km/h 62 % 0.00 in /  0 mm 619 W/m2
13:20 52.2 °F /  11.2 °C 39.6 °F /  4.2 °C 29.10 in /  985.3 hPa South 9.0 mph /  14.5 km/h 16.0 mph /  25.7 km/h 62 % 0.00 in /  0 mm 464 W/m2
13:25 52.3 °F /  11.3 °C 39.2 °F /  4 °C 29.10 in /  985.3 hPa SE 9.0 mph /  14.5 km/h 16.0 mph /  25.7 km/h 61 % 0.00 in /  0 mm 573 W/m2
13:30 52.4 °F /  11.3 °C 38.9 °F /  3.8 °C 29.09 in /  985 hPa South 9.0 mph /  14.5 km/h 10.0 mph /  16.1 km/h 60 % 0.00 in /  0 mm 563 W/m2
13:40 52.7 °F /  11.5 °C 40.0 °F /  4.4 °C 29.10 in /  985.3 hPa South 8.0 mph /  12.9 km/h 8.0 mph /  12.9 km/h 62 % 0.00 in /  0 mm 570 W/m2
13:45 52.9 °F /  11.6 °C 40.2 °F /  4.6 °C 29.09 in /  985 hPa SSW 8.0 mph /  12.9 km/h 11.0 mph /  17.7 km/h 62 % 0.00 in /  0 mm 584 W/m2
13:55 53.3 °F /  11.8 °C 39.8 °F /  4.3 °C 29.09 in /  985 hPa SSW 10.0 mph /  16.1 km/h 10.0 mph /  16.1 km/h 60 % 0.00 in /  0 mm 524 W/m2
14:00 52.9 °F /  11.6 °C 39.4 °F /  4.1 °C 29.09 in /  985 hPa South 10.0 mph /  16.1 km/h 10.0 mph /  16.1 km/h 60 % 0.00 in /  0 mm 490 W/m2
14:05 52.9 °F /  11.6 °C 39.8 °F /  4.3 °C 29.09 in /  985 hPa South 9.0 mph /  14.5 km/h 10.0 mph /  16.1 km/h 61 % 0.00 in /  0 mm 503 W/m2
14:10 52.8 °F /  11.6 °C 39.7 °F /  4.3 °C 29.09 in /  985 hPa SE 9.0 mph /  14.5 km/h 9.0 mph /  14.5 km/h 61 % 0.00 in /  0 mm 492 W/m2
14:20 52.9 °F /  11.6 °C 39.8 °F /  4.3 °C 29.09 in /  985 hPa South 9.0 mph /  14.5 km/h 10.0 mph /  16.1 km/h 61 % 0.00 in /  0 mm 422 W/m2
14:25 52.7 °F /  11.5 °C 38.3 °F /  3.5 °C 29.09 in /  985 hPa South 10.0 mph /  16.1 km/h 10.0 mph /  16.1 km/h 58 % 0.00 in /  0 mm 515 W/m2
14:30 52.7 °F /  11.5 °C 38.8 °F /  3.8 °C 29.09 in /  985 hPa SW 10.0 mph /  16.1 km/h 12.0 mph /  19.3 km/h 59 % 0.00 in /  0 mm 492 W/m2
14:35 52.7 °F /  11.5 °C 38.8 °F /  3.8 °C 29.09 in /  985 hPa South 9.0 mph /  14.5 km/h 12.0 mph /  19.3 km/h 59 % 0.00 in /  0 mm 517 W/m2
14:40 52.2 °F /  11.2 °C 38.7 °F /  3.7 °C 29.09 in /  985 hPa SE 10.0 mph /  16.1 km/h 10.0 mph /  16.1 km/h 60 % 0.00 in /  0 mm 162 W/m2
14:50 51.5 °F /  10.8 °C 38.1 °F /  3.4 °C 29.09 in /  985 hPa SSE 9.0 mph /  14.5 km/h 9.0 mph /  14.5 km/h 60 % 0.00 in /  0 mm 211 W/m2
14:55 51.5 °F /  10.8 °C 38.1 °F /  3.4 °C 29.09 in /  985 hPa South 9.0 mph /  14.5 km/h 10.0 mph /  16.1 km/h 60 % 0.00 in /  0 mm 485 W/m2
15:00 51.8 °F /  11 °C 37.9 °F /  3.3 °C 29.08 in /  984.6 hPa SW 9.0 mph /  14.5 km/h 11.0 mph /  17.7 km/h 59 % 0.00 in /  0 mm 476 W/m2
15:10 52.8 °F /  11.6 °C 38.9 °F /  3.8 °C 29.08 in /  984.6 hPa SE 8.0 mph /  12.9 km/h 8.0 mph /  12.9 km/h 59 % 0.00 in /  0 mm 469 W/m2
15:15 53.0 °F /  11.7 °C 38.2 °F /  3.4 °C 29.08 in /  984.6 hPa SSE 9.0 mph /  14.5 km/h 12.0 mph /  19.3 km/h 57 % 0.00 in /  0 mm 457 W/m2
15:25 52.7 °F /  11.5 °C 37.9 °F /  3.3 °C 29.08 in /  984.6 hPa SSE 9.0 mph /  14.5 km/h 12.0 mph /  19.3 km/h 57 % 0.00 in /  0 mm 369 W/m2
15:30 52.8 °F /  11.6 °C 36.6 °F /  2.6 °C 29.08 in /  984.6 hPa South 10.0 mph /  16.1 km/h 10.0 mph /  16.1 km/h 54 % 0.00 in /  0 mm 113 W/m2
15:35 52.5 °F /  11.4 °C 37.2 °F /  2.9 °C 29.08 in /  984.6 hPa South 8.0 mph /  12.9 km/h 10.0 mph /  16.1 km/h 56 % 0.00 in /  0 mm 127 W/m2
15:40 52.2 °F /  11.2 °C 37.0 °F /  2.8 °C 29.08 in /  984.6 hPa South 7.0 mph /  11.3 km/h 10.0 mph /  16.1 km/h 56 % 0.00 in /  0 mm 130 W/m2
15:45 52.0 °F /  11.1 °C 36.8 °F /  2.7 °C 29.08 in /  984.6 hPa SSW 8.0 mph /  12.9 km/h 10.0 mph /  16.1 km/h 56 % 0.00 in /  0 mm 118 W/m2
15:50 51.7 °F /  10.9 °C 37.4 °F /  3 °C 29.08 in /  984.6 hPa SSW 8.0 mph /  12.9 km/h 10.0 mph /  16.1 km/h 58 % 0.00 in /  0 mm 95 W/m2
16:00 51.3 °F /  10.7 °C 37.4 °F /  3 °C 29.08 in /  984.6 hPa South 9.0 mph /  14.5 km/h 9.0 mph /  14.5 km/h 59 % 0.00 in /  0 mm 65 W/m2
16:05 51.1 °F /  10.6 °C 37.3 °F /  2.9 °C 29.08 in /  984.6 hPa South 9.0 mph /  14.5 km/h 9.0 mph /  14.5 km/h 59 % 0.00 in /  0 mm 44 W/m2
16:10 51.0 °F /  10.6 °C 37.6 °F /  3.1 °C 29.08 in /  984.6 hPa SSW 8.0 mph /  12.9 km/h 15.0 mph /  24.1 km/h 60 % 0.00 in /  0 mm 40 W/m2
16:20 50.7 °F /  10.4 °C 37.7 °F /  3.2 °C 29.08 in /  984.6 hPa SSW 7.0 mph /  11.3 km/h 7.0 mph /  11.3 km/h 61 % 0.00 in /  0 mm 39 W/m2
16:25 50.6 °F /  10.3 °C 37.6 °F /  3.1 °C 29.08 in /  984.6 hPa SW 8.0 mph /  12.9 km/h 13.0 mph /  20.9 km/h 61 % 0.00 in /  0 mm 42 W/m2
16:35 50.4 °F /  10.2 °C 37.9 °F /  3.3 °C 29.07 in /  984.3 hPa South 8.0 mph /  12.9 km/h 9.0 mph /  14.5 km/h 62 % 0.00 in /  0 mm 30 W/m2
16:40 50.4 °F /  10.2 °C 38.3 °F /  3.5 °C 29.07 in /  984.3 hPa SE 7.0 mph /  11.3 km/h 7.0 mph /  11.3 km/h 63 % 0.00 in /  0 mm 49 W/m2
16:45 50.4 °F /  10.2 °C 38.3 °F /  3.5 °C 29.07 in /  984.3 hPa SSE 6.0 mph /  9.7 km/h 12.0 mph /  19.3 km/h 63 % 0.00 in /  0 mm 58 W/m2
16:50 50.3 °F /  10.2 °C 38.2 °F /  3.4 °C 29.08 in /  984.6 hPa SSE 8.0 mph /  12.9 km/h 8.0 mph /  12.9 km/h 63 % 0.00 in /  0 mm 46 W/m2
16:55 50.3 °F /  10.2 °C 38.2 °F /  3.4 °C 29.07 in /  984.3 hPa SE 9.0 mph /  14.5 km/h 9.0 mph /  14.5 km/h 63 % 0.00 in /  0 mm 42 W/m2
17:05 50.2 °F /  10.1 °C 38.5 °F /  3.6 °C 29.08 in /  984.6 hPa SE 8.0 mph /  12.9 km/h 10.0 mph /  16.1 km/h 64 % 0.00 in /  0 mm 37 W/m2
17:10 50.1 °F /  10.1 °C 38.4 °F /  3.6 °C 29.08 in /  984.6 hPa SE 8.0 mph /  12.9 km/h 8.0 mph /  12.9 km/h 64 % 0.00 in /  0 mm 30 W/m2
17:15 50.1 °F /  10.1 °C 38.4 °F /  3.6 °C 29.07 in /  984.3 hPa SE 8.0 mph /  12.9 km/h 8.0 mph /  12.9 km/h 64 % 0.00 in /  0 mm 26 W/m2
17:20 50.0 °F /  10 °C 38.3 °F /  3.5 °C 29.08 in /  984.6 hPa SE 8.0 mph /  12.9 km/h 9.0 mph /  14.5 km/h 64 % 0.00 in /  0 mm 18 W/m2
17:25 50.0 °F /  10 °C 38.3 °F /  3.5 °C 29.08 in /  984.6 hPa South 9.0 mph /  14.5 km/h 9.0 mph /  14.5 km/h 64 % 0.00 in /  0 mm 12 W/m2
17:30 49.9 °F /  9.9 °C 38.6 °F /  3.7 °C 29.08 in /  984.6 hPa SE 10.0 mph /  16.1 km/h 10.0 mph /  16.1 km/h 65 % 0.00 in /  0 mm 11 W/m2
17:40 49.7 °F /  9.8 °C 38.8 °F /  3.8 °C 29.08 in /  984.6 hPa SSE 10.0 mph /  16.1 km/h 16.0 mph /  25.7 km/h 66 % 0.00 in /  0 mm 0 W/m2
17:45 49.5 °F /  9.7 °C 39.4 °F /  4.1 °C 29.09 in /  985 hPa South 11.0 mph /  17.7 km/h 16.0 mph /  25.7 km/h 68 % 0.00 in /  0 mm 0 W/m2
17:55 47.9 °F /  8.8 °C 40.7 °F /  4.8 °C 29.09 in /  985 hPa SSE 10.0 mph /  16.1 km/h 12.0 mph /  19.3 km/h 76 % 0.00 in /  0 mm 0 W/m2
18:00 47.3 °F /  8.5 °C 40.8 °F /  4.9 °C 29.09 in /  985 hPa SSE 8.0 mph /  12.9 km/h 8.0 mph /  12.9 km/h 78 % 0.00 in /  0 mm 0 W/m2
18:05 46.9 °F /  8.3 °C 40.7 °F /  4.8 °C 29.09 in /  985 hPa SSE 7.0 mph /  11.3 km/h 8.0 mph /  12.9 km/h 79 % 0.00 in /  0 mm 0 W/m2
18:15 46.6 °F /  8.1 °C 41.1 °F /  5.1 °C 29.09 in /  985 hPa SSE 7.0 mph /  11.3 km/h 8.0 mph /  12.9 km/h 81 % 0.00 in /  0 mm 0 W/m2
18:20 46.5 °F /  8.1 °C 41.3 °F /  5.2 °C 29.09 in /  985 hPa SSE 7.0 mph /  11.3 km/h 7.0 mph /  11.3 km/h 82 % 0.00 in /  0 mm 0 W/m2
18:25 46.4 °F /  8 °C 41.2 °F /  5.1 °C 29.09 in /  985 hPa SE 8.0 mph /  12.9 km/h 8.0 mph /  12.9 km/h 82 % 0.00 in /  0 mm 0 W/m2
18:30 46.3 °F /  7.9 °C 41.1 °F /  5.1 °C 29.09 in /  985 hPa SE 8.0 mph /  12.9 km/h 9.0 mph /  14.5 km/h 82 % 0.00 in /  0 mm 0 W/m2
18:35 46.2 °F /  7.9 °C 41.3 °F /  5.2 °C 29.09 in /  985 hPa SE 8.0 mph /  12.9 km/h 9.0 mph /  14.5 km/h 83 % 0.00 in /  0 mm 0 W/m2
18:45 45.9 °F /  7.7 °C 41.0 °F /  5 °C 29.09 in /  985 hPa SSE 6.0 mph /  9.7 km/h 8.0 mph /  12.9 km/h 83 % 0.00 in /  0 mm 0 W/m2
18:50 45.7 °F /  7.6 °C 41.1 °F /  5.1 °C 29.08 in /  984.6 hPa SE 6.0 mph /  9.7 km/h 6.0 mph /  9.7 km/h 84 % 0.00 in /  0 mm 0 W/m2
18:55 45.6 °F /  7.6 °C 41.0 °F /  5 °C 29.09 in /  985 hPa SE 6.0 mph /  9.7 km/h 6.0 mph /  9.7 km/h 84 % 0.00 in /  0 mm 0 W/m2
19:00 45.4 °F /  7.4 °C 41.2 °F /  5.1 °C 29.09 in /  985 hPa South 7.0 mph /  11.3 km/h 7.0 mph /  11.3 km/h 85 % 0.00 in /  0 mm 0 W/m2
19:05 45.3 °F /  7.4 °C 41.1 °F /  5.1 °C 29.09 in /  985 hPa SSE 6.0 mph /  9.7 km/h 7.0 mph /  11.3 km/h 85 % 0.00 in /  0 mm 0 W/m2
19:10 45.2 °F /  7.3 °C 41.3 °F /  5.2 °C 29.09 in /  985 hPa South 6.0 mph /  9.7 km/h 6.0 mph /  9.7 km/h 86 % 0.00 in /  0 mm 0 W/m2
19:20 45.1 °F /  7.3 °C 41.2 °F /  5.1 °C 29.09 in /  985 hPa SSW 6.0 mph /  9.7 km/h 6.0 mph /  9.7 km/h 86 % 0.00 in /  0 mm 0 W/m2
19:30 45.3 °F /  7.4 °C 41.4 °F /  5.2 °C 29.09 in /  985 hPa SSW 6.0 mph /  9.7 km/h 6.0 mph /  9.7 km/h 86 % 0.00 in /  0 mm 0 W/m2
19:35 45.4 °F /  7.4 °C 41.5 °F /  5.3 °C 29.09 in /  985 hPa SSW 6.0 mph /  9.7 km/h 7.0 mph /  11.3 km/h 86 % 0.00 in /  0 mm 0 W/m2
19:40 45.4 °F /  7.4 °C 41.2 °F /  5.1 °C 29.09 in /  985 hPa SSW 7.0 mph /  11.3 km/h 7.0 mph /  11.3 km/h 85 % 0.00 in /  0 mm 0 W/m2
19:45 45.5 °F /  7.5 °C 41.3 °F /  5.2 °C 29.09 in /  985 hPa SSW 6.0 mph /  9.7 km/h 8.0 mph /  12.9 km/h 85 % 0.00 in /  0 mm 0 W/m2
19:55 45.4 °F /  7.4 °C 41.2 °F /  5.1 °C 29.09 in /  985 hPa SSW 7.0 mph /  11.3 km/h 8.0 mph /  12.9 km/h 85 % 0.00 in /  0 mm 0 W/m2
20:00 45.3 °F /  7.4 °C 41.1 °F /  5.1 °C 29.09 in /  985 hPa South 8.0 mph /  12.9 km/h 8.0 mph /  12.9 km/h 85 % 0.00 in /  0 mm 0 W/m2
20:05 45.2 °F /  7.3 °C 41.0 °F /  5 °C 29.09 in /  985 hPa SSW 9.0 mph /  14.5 km/h 13.0 mph /  20.9 km/h 85 % 0.00 in /  0 mm 0 W/m2
20:10 45.2 °F /  7.3 °C 41.0 °F /  5 °C 29.09 in /  985 hPa South 8.0 mph /  12.9 km/h 8.0 mph /  12.9 km/h 85 % 0.00 in /  0 mm 0 W/m2
20:15 45.1 °F /  7.3 °C 41.2 °F /  5.1 °C 29.09 in /  985 hPa SSW 6.0 mph /  9.7 km/h 8.0 mph /  12.9 km/h 86 % 0.00 in /  0 mm 0 W/m2
20:25 44.9 °F /  7.2 °C 41.0 °F /  5 °C 29.09 in /  985 hPa South 6.0 mph /  9.7 km/h 10.0 mph /  16.1 km/h 86 % 0.00 in /  0 mm 0 W/m2
20:30 44.8 °F /  7.1 °C 40.9 °F /  4.9 °C 29.09 in /  985 hPa South 6.0 mph /  9.7 km/h 7.0 mph /  11.3 km/h 86 % 0.00 in /  0 mm 0 W/m2
20:35 44.7 °F /  7.1 °C 40.8 °F /  4.9 °C 29.10 in /  985.3 hPa SSW 7.0 mph /  11.3 km/h 8.0 mph /  12.9 km/h 86 % 0.00 in /  0 mm 0 W/m2
20:45 44.4 °F /  6.9 °C 40.8 °F /  4.9 °C 29.10 in /  985.3 hPa SSW 6.0 mph /  9.7 km/h 8.0 mph /  12.9 km/h 87 % 0.00 in /  0 mm 0 W/m2
20:50 44.4 °F /  6.9 °C 40.8 °F /  4.9 °C 29.10 in /  985.3 hPa SSW 8.0 mph /  12.9 km/h 10.0 mph /  16.1 km/h 87 % 0.00 in /  0 mm 0 W/m2
21:00 44.4 °F /  6.9 °C 40.8 °F /  4.9 °C 29.10 in /  985.3 hPa WSW 9.0 mph /  14.5 km/h 9.0 mph /  14.5 km/h 87 % 0.00 in /  0 mm 0 W/m2
21:05 44.2 °F /  6.8 °C 40.3 °F /  4.6 °C 29.10 in /  985.3 hPa WSW 8.0 mph /  12.9 km/h 9.0 mph /  14.5 km/h 86 % 0.00 in /  0 mm 0 W/m2
21:10 44.1 °F /  6.7 °C 39.9 °F /  4.4 °C 29.10 in /  985.3 hPa West 8.0 mph /  12.9 km/h 8.0 mph /  12.9 km/h 85 % 0.00 in /  0 mm 0 W/m2
21:15 44.1 °F /  6.7 °C 39.9 °F /  4.4 °C 29.10 in /  985.3 hPa SW 7.0 mph /  11.3 km/h 8.0 mph /  12.9 km/h 85 % 0.00 in /  0 mm 0 W/m2
21:20 43.9 °F /  6.6 °C 39.4 °F /  4.1 °C 29.10 in /  985.3 hPa WSW 8.0 mph /  12.9 km/h 8.0 mph /  12.9 km/h 84 % 0.00 in /  0 mm 0 W/m2
21:25 43.8 °F /  6.6 °C 39.3 °F /  4.1 °C 29.10 in /  985.3 hPa WSW 8.0 mph /  12.9 km/h 8.0 mph /  12.9 km/h 84 % 0.00 in /  0 mm 0 W/m2
21:35 43.5 °F /  6.4 °C 39.0 °F /  3.9 °C 29.10 in /  985.3 hPa SW 5.0 mph /  8 km/h 7.0 mph /  11.3 km/h 84 % 0.00 in /  0 mm 0 W/m2
21:40 43.4 °F /  6.3 °C 38.9 °F /  3.8 °C 29.10 in /  985.3 hPa SW 5.0 mph /  8 km/h 8.0 mph /  12.9 km/h 84 % 0.00 in /  0 mm 0 W/m2
21:45 43.3 °F /  6.3 °C 38.8 °F /  3.8 °C 29.11 in /  985.7 hPa SW 5.0 mph /  8 km/h 8.0 mph /  12.9 km/h 84 % 0.00 in /  0 mm 0 W/m2
21:50 43.1 °F /  6.2 °C 38.6 °F /  3.7 °C 29.11 in /  985.7 hPa SW 5.0 mph /  8 km/h 6.0 mph /  9.7 km/h 84 % 0.00 in /  0 mm 0 W/m2
21:55 43.0 °F /  6.1 °C 38.5 °F /  3.6 °C 29.11 in /  985.7 hPa SW 4.0 mph /  6.4 km/h 6.0 mph /  9.7 km/h 84 % 0.00 in /  0 mm 0 W/m2
22:05 42.9 °F /  6.1 °C 38.7 °F /  3.7 °C 29.11 in /  985.7 hPa SW 4.0 mph /  6.4 km/h 6.0 mph /  9.7 km/h 85 % 0.00 in /  0 mm 0 W/m2
22:10 42.9 °F /  6.1 °C 38.7 °F /  3.7 °C 29.11 in /  985.7 hPa WSW 5.0 mph /  8 km/h 5.0 mph /  8 km/h 85 % 0.00 in /  0 mm 0 W/m2
22:20 42.9 °F /  6.1 °C 38.7 °F /  3.7 °C 29.11 in /  985.7 hPa SW 6.0 mph /  9.7 km/h 6.0 mph /  9.7 km/h 85 % 0.00 in /  0 mm 0 W/m2
22:25 42.9 °F /  6.1 °C 38.7 °F /  3.7 °C 29.11 in /  985.7 hPa SSW 6.0 mph /  9.7 km/h 9.0 mph /  14.5 km/h 85 % 0.00 in /  0 mm 0 W/m2
22:30 42.9 °F /  6.1 °C 38.7 °F /  3.7 °C 29.12 in /  986 hPa SW 6.0 mph /  9.7 km/h 6.0 mph /  9.7 km/h 85 % 0.00 in /  0 mm 0 W/m2
22:40 43.1 °F /  6.2 °C 39.2 °F /  4 °C 29.12 in /  986 hPa SSW 7.0 mph /  11.3 km/h 8.0 mph /  12.9 km/h 86 % 0.00 in /  0 mm 0 W/m2
22:45 43.2 °F /  6.2 °C 39.3 °F /  4.1 °C 29.12 in /  986 hPa SW 6.0 mph /  9.7 km/h 8.0 mph /  12.9 km/h 86 % 0.00 in /  0 mm 0 W/m2
22:50 43.1 °F /  6.2 °C 39.2 °F /  4 °C 29.12 in /  986 hPa SSW 6.0 mph /  9.7 km/h 8.0 mph /  12.9 km/h 86 % 0.00 in /  0 mm 0 W/m2
22:55 43.0 °F /  6.1 °C 39.1 °F /  3.9 °C 29.12 in /  986 hPa SW 6.0 mph /  9.7 km/h 8.0 mph /  12.9 km/h 86 % 0.00 in /  0 mm 0 W/m2
23:00 42.8 °F /  6 °C 38.9 °F /  3.8 °C 29.12 in /  986 hPa SW 6.0 mph /  9.7 km/h 6.0 mph /  9.7 km/h 86 % 0.00 in /  0 mm 0 W/m2
23:05 42.7 °F /  5.9 °C 38.8 °F /  3.8 °C 29.12 in /  986 hPa SW 6.0 mph /  9.7 km/h 6.0 mph /  9.7 km/h 86 % 0.00 in /  0 mm 0 W/m2
23:15 42.8 °F /  6 °C 39.2 °F /  4 °C 29.12 in /  986 hPa WSW 7.0 mph /  11.3 km/h 7.0 mph /  11.3 km/h 87 % 0.00 in /  0 mm 0 W/m2
23:20 42.8 °F /  6 °C 39.2 °F /  4 °C 29.13 in /  986.3 hPa SW 8.0 mph /  12.9 km/h 12.0 mph /  19.3 km/h 87 % 0.00 in /  0 mm 0 W/m2
23:25 42.9 °F /  6.1 °C 39.3 °F /  4.1 °C 29.13 in /  986.3 hPa WSW 9.0 mph /  14.5 km/h 15.0 mph /  24.1 km/h 87 % 0.00 in /  0 mm 0 W/m2
23:30 43.0 °F /  6.1 °C 39.4 °F /  4.1 °C 29.13 in /  986.3 hPa SW 11.0 mph /  17.7 km/h 13.0 mph /  20.9 km/h 87 % 0.00 in /  0 mm 0 W/m2
23:40 43.0 °F /  6.1 °C 39.4 °F /  4.1 °C 29.13 in /  986.3 hPa WSW 11.0 mph /  17.7 km/h 11.0 mph /  17.7 km/h 87 % 0.00 in /  0 mm 0 W/m2
23:45 43.0 °F /  6.1 °C 39.4 °F /  4.1 °C 29.13 in /  986.3 hPa WSW 9.0 mph /  14.5 km/h 11.0 mph /  17.7 km/h 87 % 0.00 in /  0 mm 0 W/m2
23:55 42.8 °F /  6 °C 39.2 °F /  4 °C 29.13 in /  986.3 hPa WSW 7.0 mph /  11.3 km/h 8.0 mph /  12.9 km/h 87 % 0.00 in /  0 mm 0 W/m2
Delerius-Weather
Compliments of Weather Underground - 2 mb

Data updates at regular intervals.